Time;durP1;ratioP1;P1;durP2;ratioP2;P2;SDS_P1;SDS_P2;PMS_P1;PMS_P2;Temp;Humidity;BMP_temperature;BMP_pressure;BME280_temperature;BME280_humidity;BME280_pressure;Samples;Min_cycle;Max_cycle;Signal;HPM_P1;HPM_P2
2022/07/16 00:03:36;;;;;;;4.38;3.00;;;15.30;99.90;;;;;;6240017;23;20407;-76
2022/07/16 00:06:02;;;;;;;6.35;3.00;;;15.30;99.90;;;;;;6240046;23;20046;-76
2022/07/16 00:08:28;;;;;;;3.78;2.70;;;15.30;99.90;;;;;;6215960;23;20379;-78
2022/07/16 00:10:53;;;;;;;5.97;3.50;;;15.30;99.90;;;;;;6215690;23;20348;-76
2022/07/16 00:13:19;;;;;;;3.50;3.10;;;15.30;99.90;;;;;;6214862;23;20349;-78
2022/07/16 00:15:45;;;;;;;3.92;3.17;;;15.30;99.90;;;;;;6214478;23;20313;-77
2022/07/16 00:20:54;;;;;;;3.08;2.65;;;15.30;99.90;;;;;;6239948;23;20087;-78
2022/07/16 00:23:20;;;;;;;5.55;2.78;;;15.40;99.90;;;;;;6165083;23;20043;-79
2022/07/16 00:25:46;;;;;;;4.13;2.95;;;15.40;99.90;;;;;;6240370;23;20448;-78
2022/07/16 00:28:12;;;;;;;3.55;2.55;;;15.50;99.90;;;;;;6238883;23;20047;-77
2022/07/16 00:30:37;;;;;;;3.95;2.90;;;15.50;99.90;;;;;;6190543;23;20071;-77
2022/07/16 00:33:03;;;;;;;5.30;3.10;;;15.50;99.90;;;;;;6214573;23;20111;-75
2022/07/16 00:35:29;;;;;;;6.22;2.83;;;15.60;99.90;;;;;;6214860;23;20012;-78
2022/07/16 00:37:54;;;;;;;5.93;2.90;;;15.60;99.90;;;;;;6214951;23;20027;-75
2022/07/16 00:40:20;;;;;;;3.05;2.22;;;15.60;99.90;;;;;;6214177;23;20023;-78
2022/07/16 00:42:46;;;;;;;3.95;3.03;;;15.50;99.90;;;;;;6216881;23;20016;-79
2022/07/16 00:45:11;;;;;;;3.83;2.63;;;15.50;99.90;;;;;;6240473;23;20016;-76
2022/07/16 00:47:37;;;;;;;4.95;2.78;;;15.50;99.90;;;;;;6242020;23;20019;-79
2022/07/16 00:50:03;;;;;;;3.38;2.42;;;15.30;99.90;;;;;;6215121;23;20091;-77
2022/07/16 00:52:29;;;;;;;3.00;1.98;;;15.40;99.90;;;;;;6215896;23;20095;-78
2022/07/16 00:54:55;;;;;;;3.45;1.88;;;15.20;99.90;;;;;;6213594;23;20043;-76
2022/07/16 00:57:20;;;;;;;2.83;1.65;;;15.20;99.90;;;;;;6214233;23;20016;-78
2022/07/16 00:59:46;;;;;;;3.30;1.90;;;15.40;99.90;;;;;;6240664;23;20107;-77
2022/07/16 01:02:12;;;;;;;3.83;2.20;;;15.30;99.90;;;;;;6241115;23;20016;-75
2022/07/16 01:04:37;;;;;;;4.93;1.90;;;15.40;99.90;;;;;;6239359;23;20016;-76
2022/07/16 01:07:04;;;;;;;3.20;2.15;;;15.40;99.90;;;;;;6216834;23;20527;-75
2022/07/16 01:09:32;;;;;;;4.07;2.15;;;15.30;99.90;;;;;;6215450;23;20081;-77
2022/07/16 01:11:58;;;;;;;2.67;1.70;;;15.20;99.90;;;;;;6217478;23;20016;-77
2022/07/16 01:14:24;;;;;;;3.13;1.80;;;15.20;99.90;;;;;;6241240;23;20020;-78
2022/07/16 01:16:50;;;;;;;4.20;1.70;;;15.20;99.90;;;;;;6217191;23;20054;-76
2022/07/16 01:19:16;;;;;;;2.58;1.65;;;15.40;99.90;;;;;;6190192;23;20020;-75
2022/07/16 01:21:45;;;;;;;1.70;1.58;;;15.40;99.90;;;;;;6242755;23;20008;-76
2022/07/16 01:24:11;;;;;;;5.03;1.52;;;15.40;99.90;;;;;;6238470;23;20014;-74
2022/07/16 01:26:37;;;;;;;3.67;1.67;;;15.50;99.90;;;;;;6241125;23;20027;-76
2022/07/16 01:29:03;;;;;;;4.70;1.60;;;15.30;99.90;;;;;;6215375;23;20016;-74
2022/07/16 01:31:29;;;;;;;4.63;1.42;;;15.30;99.90;;;;;;6186772;23;20099;-77
2022/07/16 01:36:39;;;;;;;3.90;1.50;;;15.40;99.90;;;;;;6215812;23;20031;-77
2022/07/16 01:39:05;;;;;;;3.95;1.40;;;15.60;99.90;;;;;;6240724;23;20441;-77
2022/07/16 01:41:30;;;;;;;4.90;1.55;;;15.50;99.90;;;;;;6238122;23;20236;-77
2022/07/16 01:43:56;;;;;;;5.03;1.42;;;15.50;99.90;;;;;;6239282;23;20555;-74
2022/07/16 01:46:22;;;;;;;4.22;1.60;;;15.40;99.90;;;;;;6213991;23;20044;-75
2022/07/16 01:48:48;;;;;;;5.32;1.50;;;15.50;99.90;;;;;;6211726;23;20337;-77
2022/07/16 01:51:13;;;;;;;6.07;1.55;;;15.60;99.90;;;;;;6239194;23;20016;-79
2022/07/16 01:53:39;;;;;;;4.35;1.58;;;15.40;99.90;;;;;;6214064;23;20082;-76
2022/07/16 01:56:05;;;;;;;3.13;1.20;;;15.70;99.90;;;;;;6212313;23;20062;-77
2022/07/16 01:58:31;;;;;;;3.97;1.33;;;15.50;99.90;;;;;;6213129;23;20667;-76
2022/07/16 02:00:57;;;;;;;4.63;1.60;;;15.60;99.90;;;;;;6238469;23;20096;-79
2022/07/16 02:03:23;;;;;;;3.10;1.52;;;15.80;99.90;;;;;;6237924;23;20039;-78
2022/07/16 02:05:48;;;;;;;8.13;1.70;;;15.80;99.90;;;;;;6212174;23;20090;-78
2022/07/16 02:08:15;;;;;;;6.75;1.60;;;15.70;99.90;;;;;;6237846;23;20095;-77
2022/07/16 02:10:40;;;;;;;4.18;1.38;;;15.60;99.90;;;;;;6237853;23;20047;-77
2022/07/16 02:13:07;;;;;;;3.35;1.40;;;15.70;99.90;;;;;;6188944;23;20020;-80
2022/07/16 02:15:34;;;;;;;4.97;1.40;;;15.80;99.90;;;;;;6187770;23;20051;-78
2022/07/16 02:17:59;;;;;;;3.60;1.77;;;15.50;99.90;;;;;;6213380;23;20023;-77
2022/07/16 02:20:25;;;;;;;4.10;1.60;;;15.60;99.90;;;;;;6213847;23;20012;-81
2022/07/16 02:22:55;;;;;;;4.30;1.67;;;15.70;99.90;;;;;;6213747;23;20455;-78
2022/07/16 02:25:21;;;;;;;6.03;1.60;;;15.60;99.90;;;;;;6214895;23;20012;-79
2022/07/16 02:30:31;;;;;;;4.13;1.60;;;15.30;99.90;;;;;;6217934;23;20020;-81
2022/07/16 02:32:57;;;;;;;4.97;1.60;;;15.40;99.90;;;;;;6214920;23;20250;-80
2022/07/16 02:35:23;;;;;;;3.95;1.80;;;15.20;99.90;;;;;;6239174;23;20016;-79
2022/07/16 02:37:49;;;;;;;4.45;1.77;;;15.20;99.90;;;;;;6213824;23;20504;-82
2022/07/16 02:40:15;;;;;;;3.70;1.75;;;15.00;99.90;;;;;;6215020;23;20012;-78
2022/07/16 02:42:46;;;;;;;2.90;1.50;;;14.90;99.90;;;;;;6240958;23;20428;-82
2022/07/16 02:45:12;;;;;;;2.90;1.70;;;14.80;99.90;;;;;;6215166;23;20009;-77
2022/07/16 02:47:38;;;;;;;3.92;1.48;;;14.70;99.90;;;;;;6214033;23;20428;-81
2022/07/16 02:50:06;;;;;;;4.78;1.92;;;14.70;99.90;;;;;;6215026;23;20032;-80
2022/07/16 02:52:31;;;;;;;3.88;1.67;;;14.60;99.90;;;;;;6238193;23;20095;-83
2022/07/16 02:54:57;;;;;;;3.35;1.67;;;14.60;99.90;;;;;;6190075;23;20412;-80
2022/07/16 02:57:23;;;;;;;5.25;1.63;;;14.60;99.90;;;;;;6188997;23;20012;-79
2022/07/16 02:59:49;;;;;;;5.35;1.90;;;14.50;99.90;;;;;;6189938;23;20341;-79
2022/07/16 03:02:14;;;;;;;4.13;1.80;;;14.50;99.90;;;;;;6187626;23;20020;-78
2022/07/16 03:04:40;;;;;;;3.92;1.90;;;14.60;99.90;;;;;;6188887;23;20400;-80
2022/07/16 03:07:06;;;;;;;7.10;2.03;;;14.60;99.90;;;;;;6214049;23;20024;-80
2022/07/16 03:09:31;;;;;;;7.47;2.45;;;14.50;99.90;;;;;;6190736;23;20020;-78
2022/07/16 03:11:57;;;;;;;2.45;1.73;;;14.40;99.90;;;;;;6216114;23;20039;-76
2022/07/16 03:14:23;;;;;;;8.52;2.15;;;14.20;99.90;;;;;;6241660;23;20420;-80
2022/07/16 03:16:48;;;;;;;5.47;2.05;;;14.20;99.90;;;;;;6191231;23;20071;-79
2022/07/16 03:19:14;;;;;;;5.07;1.70;;;14.20;99.90;;;;;;6190401;23;20138;-79
2022/07/16 03:21:40;;;;;;;5.93;2.00;;;14.20;99.90;;;;;;6214640;23;20475;-77
2022/07/16 03:24:06;;;;;;;4.95;2.00;;;14.10;99.90;;;;;;6215914;23;20019;-78
2022/07/16 03:26:32;;;;;;;4.07;2.10;;;14.00;99.90;;;;;;6190225;23;20012;-77
2022/07/16 03:28:58;;;;;;;4.20;1.90;;;14.10;99.90;;;;;;6240481;23;20062;-76
2022/07/16 03:31:23;;;;;;;2.78;1.73;;;13.90;99.90;;;;;;6214968;23;20444;-77
2022/07/16 03:33:49;;;;;;;5.38;2.05;;;14.10;99.90;;;;;;6215392;23;20016;-76
2022/07/16 03:36:15;;;;;;;4.55;2.28;;;14.00;99.90;;;;;;6240345;23;20452;-78
2022/07/16 03:41:24;;;;;;;4.53;2.05;;;14.00;99.90;;;;;;6197353;23;20043;-77
2022/07/16 03:43:50;;;;;;;4.57;2.08;;;13.90;99.90;;;;;;6240761;23;20016;-79
2022/07/16 03:46:16;;;;;;;2.83;1.90;;;13.90;99.90;;;;;;6213864;23;20020;-78
2022/07/16 03:48:42;;;;;;;2.70;1.90;;;13.80;99.90;;;;;;6215021;23;20340;-78
2022/07/16 03:51:08;;;;;;;6.50;2.20;;;13.80;99.90;;;;;;6239968;23;20040;-77
2022/07/16 03:53:34;;;;;;;5.10;2.15;;;14.00;99.90;;;;;;6240298;23;20098;-79
2022/07/16 03:56:00;;;;;;;3.38;2.20;;;14.20;99.90;;;;;;6214504;23;20091;-77
2022/07/16 03:58:26;;;;;;;6.43;2.38;;;14.00;99.90;;;;;;6239808;23;20039;-79
2022/07/16 04:00:52;;;;;;;2.95;2.03;;;14.30;99.90;;;;;;6189895;23;20456;-77
2022/07/16 04:03:18;;;;;;;4.93;2.45;;;14.20;99.90;;;;;;6240114;23;20012;-79
2022/07/16 04:05:44;;;;;;;3.88;2.25;;;14.20;99.90;;;;;;6190803;23;20309;-77
2022/07/16 04:08:10;;;;;;;6.55;2.53;;;14.20;99.90;;;;;;6240397;23;20019;-76
2022/07/16 04:10:35;;;;;;;4.15;2.10;;;14.20;99.90;;;;;;6214988;23;20394;-77
2022/07/16 04:13:01;;;;;;;5.80;2.60;;;14.20;99.90;;;;;;6189531;23;20012;-78
2022/07/16 04:15:27;;;;;;;3.95;2.17;;;14.30;99.90;;;;;;6188317;23;20019;-81
2022/07/16 04:17:53;;;;;;;5.38;2.50;;;14.30;99.90;;;;;;6215265;23;20328;-78
2022/07/16 04:20:18;;;;;;;6.82;2.38;;;14.30;99.90;;;;;;6216602;23;20012;-81
2022/07/16 04:22:44;;;;;;;6.03;2.63;;;14.30;99.90;;;;;;6216126;23;20326;-82
2022/07/16 04:25:12;;;;;;;4.72;2.05;;;14.20;99.90;;;;;;6241679;23;20015;-77
2022/07/16 04:27:42;;;;;;;4.15;2.10;;;14.40;99.90;;;;;;6216267;23;20027;-84
2022/07/16 04:30:09;;;;;;;9.85;2.58;;;14.40;99.90;;;;;;6240592;23;20023;-82
2022/07/16 04:32:37;;;;;;;4.43;2.28;;;14.30;99.90;;;;;;6215306;23;20023;-80
2022/07/16 04:35:03;;;;;;;5.13;1.80;;;14.50;99.90;;;;;;6216369;23;20019;-81
2022/07/16 04:37:28;;;;;;;4.93;2.25;;;14.60;99.90;;;;;;6241059;23;20016;-78
2022/07/16 04:39:54;;;;;;;5.35;2.15;;;14.70;99.90;;;;;;6215521;23;20027;-79
2022/07/16 04:42:20;;;;;;;8.55;2.35;;;14.60;99.90;;;;;;6190689;23;20008;-79
2022/07/16 04:44:46;;;;;;;6.55;2.28;;;14.70;99.90;;;;;;6215914;23;20024;-79
2022/07/16 04:47:11;;;;;;;9.52;2.00;;;15.00;99.90;;;;;;6215614;23;20012;-83
2022/07/16 04:49:37;;;;;;;9.02;3.00;;;14.90;99.90;;;;;;6215464;23;20016;-80
2022/07/16 04:52:04;;;;;;;6.47;1.98;;;14.80;99.90;;;;;;6215126;23;20018;-78
2022/07/16 04:54:30;;;;;;;6.97;1.98;;;14.80;99.90;;;;;;6239583;23;20016;-79
2022/07/16 04:56:56;;;;;;;7.45;2.40;;;15.00;99.90;;;;;;6239549;23;20031;-80
2022/07/16 04:59:22;;;;;;;3.47;1.48;;;15.10;99.90;;;;;;6213592;23;20020;-78
2022/07/16 05:01:48;;;;;;;5.57;1.58;;;15.10;99.90;;;;;;6240627;23;20016;-79
2022/07/16 05:04:13;;;;;;;3.30;1.40;;;15.20;99.90;;;;;;6214893;23;20055;-79
2022/07/16 05:06:39;;;;;;;8.07;1.73;;;15.00;99.90;;;;;;6213866;23;20047;-80
2022/07/16 05:09:05;;;;;;;6.57;1.60;;;15.10;99.90;;;;;;6188321;23;20031;-80
2022/07/16 05:11:30;;;;;;;7.05;1.63;;;15.20;99.90;;;;;;6214273;23;20559;-78
2022/07/16 05:13:56;;;;;;;3.05;1.30;;;15.10;99.90;;;;;;6215064;23;20099;-79
2022/07/16 05:16:22;;;;;;;3.63;1.20;;;15.20;99.90;;;;;;6189527;23;20594;-84
2022/07/16 05:18:49;;;;;;;4.78;1.35;;;15.00;99.90;;;;;;6215778;23;20468;-79
2022/07/16 05:21:15;;;;;;;4.95;1.30;;;15.10;99.90;;;;;;6215987;23;20043;-81
2022/07/16 05:23:41;;;;;;;3.95;1.23;;;15.00;99.90;;;;;;6212685;23;20666;-82
2022/07/16 05:26:07;;;;;;;5.32;1.50;;;14.90;99.90;;;;;;6188923;23;20023;-83
2022/07/16 05:28:33;;;;;;;5.90;1.30;;;15.00;99.90;;;;;;6213852;23;20034;-79
2022/07/16 05:30:59;;;;;;;7.13;1.63;;;14.90;99.90;;;;;;6192291;23;20376;-80
2022/07/16 05:33:25;;;;;;;6.70;1.50;;;14.90;99.90;;;;;;6216956;23;20093;-79
2022/07/16 05:35:51;;;;;;;3.35;1.15;;;14.90;99.90;;;;;;6242452;23;20380;-77
2022/07/16 05:38:17;;;;;;;5.38;1.60;;;15.00;99.90;;;;;;6216285;23;20059;-79
2022/07/16 05:40:43;;;;;;;4.10;1.30;;;15.00;99.90;;;;;;6242440;23;20015;-79
2022/07/16 05:43:09;;;;;;;8.23;1.80;;;15.10;99.90;;;;;;6218017;23;20046;-77
2022/07/16 05:45:35;;;;;;;4.35;1.30;;;15.10;99.90;;;;;;6216234;23;20016;-79
2022/07/16 05:48:00;;;;;;;3.72;1.15;;;15.20;99.90;;;;;;6216742;23;20012;-77
2022/07/16 05:50:26;;;;;;;3.85;1.30;;;15.20;99.90;;;;;;6242193;23;20437;-77
2022/07/16 05:52:52;;;;;;;6.72;1.75;;;15.10;99.90;;;;;;6193193;23;20019;-81
2022/07/16 05:55:17;;;;;;;6.20;1.30;;;15.20;99.90;;;;;;6192110;23;20012;-81
2022/07/16 05:57:43;;;;;;;6.75;1.55;;;15.20;99.90;;;;;;6191448;23;20504;-81
2022/07/16 06:00:10;;;;;;;3.30;0.90;;;15.20;99.90;;;;;;6217165;23;20302;-81
2022/07/16 06:02:37;;;;;;;5.93;1.33;;;15.10;99.90;;;;;;6211124;23;20030;-79
2022/07/16 06:05:03;;;;;;;4.75;1.30;;;15.10;99.90;;;;;;6212922;23;20019;-79
2022/07/16 06:07:29;;;;;;;4.25;1.45;;;15.20;99.90;;;;;;6214856;23;20013;-79
2022/07/16 06:09:55;;;;;;;4.68;0.90;;;15.10;99.90;;;;;;6191238;23;20065;-82
2022/07/16 06:12:20;;;;;;;2.55;1.05;;;15.10;99.90;;;;;;6217080;23;20038;-82
2022/07/16 06:14:46;;;;;;;4.40;1.10;;;14.90;99.90;;;;;;6216780;23;20016;-79
2022/07/16 06:17:13;;;;;;;3.72;1.33;;;14.90;99.90;;;;;;6216139;23;20031;-79
2022/07/16 06:19:43;;;;;;;5.22;1.20;;;14.90;99.90;;;;;;6241930;23;20020;-78
2022/07/16 06:22:10;;;;;;;3.30;1.15;;;15.00;99.90;;;;;;6242844;23;20016;-77
2022/07/16 06:24:36;;;;;;;5.35;1.10;;;15.10;99.90;;;;;;6191889;23;20012;-81
2022/07/16 06:27:03;;;;;;;6.63;1.38;;;15.00;99.90;;;;;;6241976;23;20024;-79
2022/07/16 06:29:29;;;;;;;5.68;1.05;;;15.20;99.90;;;;;;6216268;23;20016;-77
2022/07/16 06:31:54;;;;;;;4.10;0.80;;;15.20;99.90;;;;;;6217114;23;20012;-79
2022/07/16 06:34:20;;;;;;;4.40;0.90;;;15.30;99.90;;;;;;6216529;23;20316;-78
2022/07/16 06:36:46;;;;;;;4.32;1.17;;;15.40;99.90;;;;;;6215774;23;20098;-83
2022/07/16 06:39:12;;;;;;;3.85;1.05;;;15.50;99.90;;;;;;6216912;23;20016;-80
2022/07/16 06:41:39;;;;;;;2.08;0.80;;;15.50;99.90;;;;;;6215837;23;20074;-81
2022/07/16 06:44:07;;;;;;;2.97;1.00;;;15.60;99.90;;;;;;6241819;23;20081;-77
2022/07/16 06:46:33;;;;;;;8.48;2.38;;;15.80;99.90;;;;;;6239868;23;20012;-79
2022/07/16 06:48:59;;;;;;;6.85;1.42;;;15.90;99.90;;;;;;6167248;23;20434;-78
2022/07/16 06:51:26;;;;;;;3.67;0.88;;;16.00;99.90;;;;;;6216114;23;20051;-81
2022/07/16 06:53:53;;;;;;;5.32;1.00;;;16.10;99.90;;;;;;6215970;23;20020;-80
2022/07/16 06:56:18;;;;;;;4.22;0.85;;;16.30;99.90;;;;;;6215667;23;20019;-78
2022/07/16 06:58:44;;;;;;;4.82;1.20;;;16.40;99.90;;;;;;6213728;23;20095;-78
2022/07/16 07:01:10;;;;;;;3.15;0.70;;;16.40;99.90;;;;;;6215332;23;20008;-80
2022/07/16 07:03:40;;;;;;;3.20;1.00;;;16.40;99.90;;;;;;6215169;23;20716;-78
2022/07/16 07:06:06;;;;;;;3.22;0.98;;;16.60;99.90;;;;;;6236700;23;20119;-78
2022/07/16 07:08:34;;;;;;;3.45;0.98;;;16.60;99.90;;;;;;6213049;23;20065;-81
2022/07/16 07:11:00;;;;;;;2.33;1.20;;;16.70;99.90;;;;;;6238011;23;20020;-80
2022/07/16 07:13:27;;;;;;;3.95;1.52;;;16.70;99.90;;;;;;6215739;23;20073;-77
2022/07/16 07:15:53;;;;;;;4.53;0.95;;;16.80;99.90;;;;;;6213795;23;20020;-79
2022/07/16 07:18:18;;;;;;;3.88;0.60;;;17.00;99.90;;;;;;6188494;23;20016;-79
2022/07/16 07:20:44;;;;;;;4.03;0.70;;;17.10;99.90;;;;;;6212184;23;20004;-79
2022/07/16 07:23:10;;;;;;;2.40;0.85;;;17.10;99.90;;;;;;6238436;23;20019;-80
2022/07/16 07:25:36;;;;;;;3.65;0.80;;;17.20;99.90;;;;;;6235608;23;20447;-79
2022/07/16 07:28:02;;;;;;;2.92;0.80;;;17.10;99.90;;;;;;6211830;23;20075;-81
2022/07/16 07:30:29;;;;;;;5.30;1.00;;;17.20;99.90;;;;;;6212646;23;20047;-78
2022/07/16 07:32:55;;;;;;;4.38;0.60;;;17.10;99.90;;;;;;6212314;23;20012;-82
2022/07/16 07:35:21;;;;;;;1.80;0.57;;;17.30;99.90;;;;;;6212083;23;20309;-78
2022/07/16 07:37:47;;;;;;;1.95;0.70;;;17.40;99.90;;;;;;6211927;23;20008;-80
2022/07/16 07:40:13;;;;;;;3.15;1.08;;;17.50;99.90;;;;;;6238764;23;20169;-78
2022/07/16 07:42:38;;;;;;;3.25;1.10;;;17.40;99.90;;;;;;6238675;23;20433;-78
2022/07/16 07:45:05;;;;;;;3.28;1.00;;;17.60;99.90;;;;;;6186679;23;20094;-79
2022/07/16 07:47:31;;;;;;;1.70;0.60;;;17.50;99.90;;;;;;6238953;23;20066;-76
2022/07/16 07:49:58;;;;;;;3.38;0.90;;;17.30;99.90;;;;;;6238707;23;20372;-77
2022/07/16 07:52:24;;;;;;;4.03;0.90;;;17.20;99.90;;;;;;6238376;23;20023;-79
2022/07/16 07:54:50;;;;;;;2.60;0.95;;;17.10;99.90;;;;;;6187049;23;20012;-80
2022/07/16 07:57:16;;;;;;;2.35;0.68;;;17.00;99.90;;;;;;6238277;23;20031;-76
2022/07/16 07:59:42;;;;;;;2.55;0.68;;;16.90;99.90;;;;;;6238944;23;20016;-79
2022/07/16 08:02:09;;;;;;;7.93;0.90;;;16.70;99.90;;;;;;6239887;23;20008;-82
2022/07/16 08:04:35;;;;;;;2.17;0.85;;;16.60;99.90;;;;;;6240342;23;20019;-83
2022/07/16 08:07:02;;;;;;;3.60;1.00;;;16.50;99.90;;;;;;6190062;23;20012;-83
2022/07/16 08:09:27;;;;;;;6.38;1.02;;;16.60;99.90;;;;;;6241452;23;20019;-79
2022/07/16 08:11:54;;;;;;;4.97;1.15;;;16.50;99.90;;;;;;6191623;23;20015;-80
2022/07/16 08:14:19;;;;;;;5.78;0.95;;;16.50;99.90;;;;;;6190585;23;20016;-78
2022/07/16 08:16:45;;;;;;;2.58;0.80;;;16.60;99.90;;;;;;6212513;23;20054;-78
2022/07/16 08:19:11;;;;;;;3.80;1.10;;;16.80;99.90;;;;;;6216492;23;20039;-83
2022/07/16 08:21:37;;;;;;;5.15;1.05;;;16.80;99.90;;;;;;6212897;23;20556;-78
2022/07/16 08:26:47;;;;;;;;;;;16.90;99.90;;;;;;6197712;23;20047;-82
2022/07/16 08:29:13;;;;;;;7.43;1.30;;;16.70;99.90;;;;;;6241588;23;19911;-80
2022/07/16 08:31:38;;;;;;;7.68;1.38;;;16.60;99.90;;;;;;6215955;23;20016;-77
2022/07/16 08:34:04;;;;;;;4.65;1.05;;;16.70;99.90;;;;;;6215055;23;20103;-79
2022/07/16 08:36:30;;;;;;;7.97;1.20;;;16.70;99.90;;;;;;6189951;23;20024;-82
2022/07/16 08:38:56;;;;;;;5.25;1.20;;;16.80;99.90;;;;;;6239685;23;20436;-78
2022/07/16 08:41:22;;;;;;;3.30;1.38;;;16.70;99.90;;;;;;6214923;23;20012;-81
2022/07/16 08:43:49;;;;;;;3.53;0.90;;;16.70;99.90;;;;;;6212103;23;20019;-81
2022/07/16 08:46:18;;;;;;;3.22;1.30;;;16.60;99.90;;;;;;6237449;23;20031;-78
2022/07/16 08:48:44;;;;;;;6.45;1.70;;;16.50;99.90;;;;;;6237663;23;20502;-78
2022/07/16 08:51:11;;;;;;;3.65;1.08;;;16.40;99.90;;;;;;6189298;23;20012;-78
2022/07/16 08:53:40;;;;;;;8.80;1.33;;;16.40;99.90;;;;;;6238655;23;20019;-78
2022/07/16 08:56:06;;;;;;;5.65;1.38;;;16.40;99.90;;;;;;6239988;23;20027;-79
2022/07/16 08:58:33;;;;;;;3.78;0.90;;;16.50;99.90;;;;;;6239823;23;20016;-80
2022/07/16 09:01:00;;;;;;;3.80;1.02;;;16.60;99.90;;;;;;6239328;23;20008;-76
2022/07/16 09:03:25;;;;;;;6.65;1.35;;;16.70;99.90;;;;;;6214259;23;21315;-77
2022/07/16 09:05:52;;;;;;;3.90;1.17;;;16.90;99.90;;;;;;6216623;23;20004;-77
2022/07/16 09:08:18;;;;;;;3.22;0.90;;;17.10;99.90;;;;;;6191210;23;20699;-78
2022/07/16 09:10:44;;;;;;;4.95;1.50;;;17.40;99.90;;;;;;6241916;23;20012;-78
2022/07/16 09:13:10;;;;;;;4.68;1.00;;;18.00;99.90;;;;;;6216042;23;20016;-77
2022/07/16 09:15:41;;;;;;;3.78;1.25;;;18.00;99.90;;;;;;6229103;23;20047;-80
2022/07/16 09:18:24;;;;;;;5.50;1.10;;;17.70;99.90;;;;;;6217072;23;20020;-81
2022/07/16 09:20:53;;;;;;;3.78;1.35;;;17.50;99.90;;;;;;6241445;23;20356;-77
2022/07/16 09:23:22;;;;;;;5.00;1.20;;;17.20;99.90;;;;;;6216009;23;20014;-76
2022/07/16 09:25:59;;;;;;;2.95;1.02;;;17.10;99.90;;;;;;6240903;23;20014;-81
2022/07/16 09:28:38;;;;;;;2.60;0.85;;;17.60;99.90;;;;;;6240842;23;20024;-77
2022/07/16 09:31:03;;;;;;;2.83;0.95;;;18.20;99.90;;;;;;6241550;23;20012;-78
2022/07/16 09:33:29;;;;;;;2.78;1.10;;;18.70;99.90;;;;;;6190598;23;20380;-75
2022/07/16 09:36:10;;;;;;;2.80;1.10;;;19.30;99.90;;;;;;6240816;23;20052;-79
2022/07/16 09:38:52;;;;;;;3.95;1.17;;;18.80;99.90;;;;;;6216747;23;20070;-78
2022/07/16 09:41:20;;;;;;;4.78;1.13;;;19.20;99.90;;;;;;6215818;23;20702;-78
2022/07/16 09:43:47;;;;;;;4.80;1.05;;;19.70;99.90;;;;;;6240971;23;20023;-78
2022/07/16 09:46:22;;;;;;;4.80;1.17;;;19.10;99.90;;;;;;6240615;23;20459;-79
2022/07/16 09:48:47;;;;;;;5.50;1.13;;;18.40;99.90;;;;;;6215352;23;20629;-82
2022/07/16 09:51:25;;;;;;;2.65;0.77;;;18.70;99.90;;;;;;6239780;23;20091;-76
2022/07/16 09:53:53;;;;;;;3.47;1.00;;;19.20;99.90;;;;;;6241077;23;20050;-77
2022/07/16 09:56:27;;;;;;;5.15;1.02;;;19.80;99.90;;;;;;6241031;23;20044;-68
2022/07/16 09:58:55;;;;;;;4.20;1.02;;;20.00;99.90;;;;;;6239161;23;20051;-79
2022/07/16 10:01:22;;;;;;;4.93;1.15;;;20.40;99.90;;;;;;6214739;23;20178;-76
2022/07/16 10:03:49;;;;;;;5.38;1.10;;;20.00;99.90;;;;;;6238285;23;20095;-78
2022/07/16 10:06:16;;;;;;;5.15;1.23;;;19.10;99.90;;;;;;6190288;23;20060;-76
2022/07/16 10:08:43;;;;;;;6.68;1.45;;;18.70;99.90;;;;;;6215187;23;20103;-76
2022/07/16 10:11:10;;;;;;;4.63;1.70;;;19.20;99.90;;;;;;6214175;23;20048;-75
2022/07/16 10:13:37;;;;;;;2.47;1.02;;;19.30;99.90;;;;;;6167123;23;20047;-76
2022/07/16 10:16:03;;;;;;;6.20;1.15;;;18.80;99.90;;;;;;6240190;23;20020;-78
2022/07/16 10:18:39;;;;;;;2.83;1.00;;;18.50;99.90;;;;;;6240428;23;20012;-77
2022/07/16 10:21:21;;;;;;;4.28;1.35;;;18.30;99.90;;;;;;6215266;23;20043;-77
2022/07/16 10:24:05;;;;;;;3.60;0.93;;;18.90;99.90;;;;;;6240143;23;20132;-75
2022/07/16 10:26:32;;;;;;;2.22;0.82;;;19.00;99.90;;;;;;6240585;23;20074;-78
2022/07/16 10:28:58;;;;;;;3.08;1.02;;;19.50;99.90;;;;;;6239640;23;20059;-77
2022/07/16 10:31:39;;;;;;;4.13;1.10;;;19.90;99.90;;;;;;6215816;23;20024;-77
2022/07/16 10:34:14;;;;;;;4.22;1.35;;;20.00;99.90;;;;;;6240776;23;20453;-78
2022/07/16 10:37:08;;;;;;;2.55;1.10;;;19.60;99.90;;;;;;6215401;23;20012;-77
2022/07/16 10:39:34;;;;;;;6.13;1.20;;;20.00;99.90;;;;;;6236153;23;20047;-76
2022/07/16 10:42:06;;;;;;;5.13;1.40;;;20.20;99.90;;;;;;6214650;23;20322;-75
2022/07/16 10:44:48;;;;;;;3.28;1.13;;;20.20;99.90;;;;;;6240905;23;20008;-75
2022/07/16 10:47:15;;;;;;;3.08;1.00;;;20.40;99.90;;;;;;6240503;23;20019;-77
2022/07/16 10:49:41;;;;;;;3.28;1.27;;;20.70;99.90;;;;;;6239833;23;20020;-77
2022/07/16 10:52:14;;;;;;;5.47;1.17;;;20.30;99.90;;;;;;6214479;23;20470;-75
2022/07/16 10:54:51;;;;;;;4.57;1.80;;;19.80;99.90;;;;;;6240917;23;20388;-79
2022/07/16 10:57:31;;;;;;;3.83;1.35;;;19.90;99.90;;;;;;6239430;23;20016;-78
2022/07/16 10:59:59;;;;;;;5.03;1.20;;;20.70;99.90;;;;;;6239788;23;20039;-78
2022/07/16 11:02:25;;;;;;;4.85;1.25;;;20.70;99.90;;;;;;6240017;23;20005;-76
2022/07/16 11:04:53;;;;;;;3.22;0.90;;;21.00;99.90;;;;;;6239505;23;20030;-75
2022/07/16 11:07:20;;;;;;;4.18;1.17;;;20.80;99.90;;;;;;6214404;23;20117;-79
2022/07/16 11:09:52;;;;;;;3.53;1.10;;;20.90;99.90;;;;;;6239672;23;20012;-77
2022/07/16 11:12:24;;;;;;;3.15;1.08;;;21.10;99.90;;;;;;6239346;23;20119;-76
2022/07/16 11:14:52;;;;;;;3.78;1.33;;;20.90;99.90;;;;;;6239143;23;20031;-77
2022/07/16 11:17:22;;;;;;;2.88;1.10;;;20.40;99.90;;;;;;6238768;23;20475;-76
2022/07/16 11:19:50;;;;;;;4.60;1.10;;;20.90;99.90;;;;;;6238571;23;20143;-75
2022/07/16 11:22:20;;;;;;;4.40;1.15;;;21.00;99.90;;;;;;6238388;23;20063;-76
2022/07/16 11:24:54;;;;;;;2.35;0.95;;;20.40;99.90;;;;;;6238845;23;20449;-79
2022/07/16 11:27:34;;;;;;;3.20;1.00;;;20.90;99.90;;;;;;6239588;23;20051;-78
2022/07/16 11:30:07;;;;;;;4.57;1.40;;;21.10;99.90;;;;;;6215039;23;20099;-79
2022/07/16 11:32:43;;;;;;;5.68;1.17;;;21.40;99.90;;;;;;6240408;23;20356;-78
2022/07/16 11:35:11;;;;;;;3.97;1.10;;;21.20;99.90;;;;;;6214923;23;20828;-77
2022/07/16 11:37:51;;;;;;;6.40;1.20;;;20.90;99.90;;;;;;6213539;23;20028;-81
2022/07/16 11:40:17;;;;;;;3.85;1.23;;;21.20;99.90;;;;;;6240457;23;20091;-78
2022/07/16 11:42:42;;;;;;;3.92;1.35;;;21.30;99.90;;;;;;6215500;23;20054;-79
2022/07/16 11:45:10;;;;;;;3.63;1.17;;;21.10;99.90;;;;;;6214206;23;20015;-78
2022/07/16 11:47:35;;;;;;;4.47;1.08;;;21.10;99.90;;;;;;6190315;23;20088;-77
2022/07/16 11:50:01;;;;;;;4.03;1.17;;;20.20;99.90;;;;;;6189204;23;20047;-80
2022/07/16 11:52:27;;;;;;;2.70;0.88;;;20.00;99.90;;;;;;6240157;23;20016;-76
2022/07/16 11:54:57;;;;;;;3.60;0.90;;;20.20;99.90;;;;;;6213125;23;20062;-79
2022/07/16 11:57:24;;;;;;;5.82;1.30;;;20.80;99.90;;;;;;6240366;23;20016;-77
2022/07/16 11:59:53;;;;;;;1.60;0.80;;;20.40;99.90;;;;;;6214782;23;20023;-77
2022/07/16 12:02:21;;;;;;;3.17;1.13;;;20.70;99.90;;;;;;6240383;23;20542;-77
2022/07/16 12:04:47;;;;;;;3.00;0.98;;;20.40;99.90;;;;;;6238396;23;20012;-78
2022/07/16 12:07:16;;;;;;;4.28;1.08;;;20.40;99.90;;;;;;6240420;23;20035;-76
2022/07/16 12:09:47;;;;;;;3.05;1.02;;;20.80;99.90;;;;;;6240220;23;20012;-80
2022/07/16 12:12:16;;;;;;;3.10;1.00;;;21.20;99.90;;;;;;6239793;23;20020;-77
2022/07/16 12:14:47;;;;;;;2.60;1.40;;;21.00;99.90;;;;;;6213769;23;20087;-77
2022/07/16 12:17:33;;;;;;;2.38;1.20;;;20.50;99.90;;;;;;6239469;23;20099;-76
2022/07/16 12:20:12;;;;;;;4.85;0.88;;;20.80;99.90;;;;;;6239408;23;20048;-74
2022/07/16 12:22:50;;;;;;;1.67;0.70;;;20.30;99.90;;;;;;6215195;23;20043;-75
2022/07/16 12:25:28;;;;;;;5.10;1.15;;;20.30;99.90;;;;;;6213726;23;20024;-77
2022/07/16 12:28:21;;;;;;;1.50;0.85;;;20.10;99.90;;;;;;6214844;23;20039;-78
2022/07/16 12:31:05;;;;;;;2.28;0.98;;;19.70;99.90;;;;;;6223375;23;20020;-77
2022/07/16 12:33:31;;;;;;;2.72;1.02;;;20.80;99.90;;;;;;6240262;23;20058;-78
2022/07/16 12:36:02;;;;;;;2.63;1.30;;;20.30;99.90;;;;;;6237721;23;20333;-78
2022/07/16 12:39:04;;;;;;;3.67;1.90;;;19.70;99.90;;;;;;6240730;23;20017;-79
2022/07/16 12:41:42;;;;;;;4.30;1.23;;;19.90;99.90;;;;;;6216557;23;20016;-79
2022/07/16 12:44:09;;;;;;;3.78;1.17;;;20.80;99.90;;;;;;6240908;23;20062;-74
2022/07/16 12:46:35;;;;;;;2.42;0.88;;;20.90;99.90;;;;;;6240074;23;20396;-75
2022/07/16 12:49:07;;;;;;;3.88;1.00;;;20.70;99.90;;;;;;6215823;23;20018;-75
2022/07/16 12:51:36;;;;;;;3.03;1.13;;;20.50;99.90;;;;;;6216610;23;20086;-78
2022/07/16 12:54:03;;;;;;;4.15;1.73;;;19.90;99.90;;;;;;6240992;23;20012;-73
2022/07/16 12:59:15;;;;;;;7.70;1.20;;;19.90;99.90;;;;;;6241224;23;20017;-77
2022/07/16 13:01:41;;;;;;;1.70;1.00;;;20.60;99.90;;;;;;6242090;23;20012;-76
2022/07/16 13:04:07;;;;;;;2.53;1.00;;;20.40;99.90;;;;;;6216559;23;20109;-78
2022/07/16 13:06:34;;;;;;;4.05;1.00;;;20.30;99.90;;;;;;6241287;23;20620;-77
2022/07/16 13:09:00;;;;;;;3.00;1.08;;;20.30;99.90;;;;;;6215846;23;20054;-75